sensor_id;sensor_type;location;lat;lon;timestamp;pressure;altitude;pressure_sealevel;temperature;humidity
84817;BME280;75051;53.104;18.058;2024-03-02T00:00:05;100407.31;;;7.88;77.01
84817;BME280;75051;53.104;18.058;2024-03-02T00:02:57;100405.50;;;7.87;77.35
84817;BME280;75051;53.104;18.058;2024-03-02T00:05:24;100401.90;;;7.86;77.44
84817;BME280;75051;53.104;18.058;2024-03-02T00:07:57;100399.84;;;7.85;77.60
84817;BME280;75051;53.104;18.058;2024-03-02T00:10:26;100397.46;;;7.82;77.36
84817;BME280;75051;53.104;18.058;2024-03-02T00:12:56;100398.71;;;7.79;77.83
84817;BME280;75051;53.104;18.058;2024-03-02T00:15:45;100399.94;;;7.78;77.66
84817;BME280;75051;53.104;18.058;2024-03-02T00:18:14;100403.31;;;7.80;77.67
84817;BME280;75051;53.104;18.058;2024-03-02T00:20:42;100404.88;;;7.80;77.46
84817;BME280;75051;53.104;18.058;2024-03-02T00:23:10;100403.71;;;7.79;77.72
84817;BME280;75051;53.104;18.058;2024-03-02T00:25:43;100397.64;;;7.75;77.74
84817;BME280;75051;53.104;18.058;2024-03-02T00:28:21;100396.91;;;7.74;77.87
84817;BME280;75051;53.104;18.058;2024-03-02T00:30:55;100392.48;;;7.73;78.11
84817;BME280;75051;53.104;18.058;2024-03-02T00:33:26;100395.17;;;7.72;77.90
84817;BME280;75051;53.104;18.058;2024-03-02T00:35:54;100394.38;;;7.68;78.00
84817;BME280;75051;53.104;18.058;2024-03-02T00:38:21;100395.44;;;7.66;78.12
84817;BME280;75051;53.104;18.058;2024-03-02T00:40:49;100389.36;;;7.64;78.46
84817;BME280;75051;53.104;18.058;2024-03-02T00:46:12;100395.05;;;7.65;78.28
84817;BME280;75051;53.104;18.058;2024-03-02T00:48:46;100395.84;;;7.64;78.33
84817;BME280;75051;53.104;18.058;2024-03-02T00:51:14;100392.05;;;7.64;78.23
84817;BME280;75051;53.104;18.058;2024-03-02T00:53:41;100396.34;;;7.63;78.47
84817;BME280;75051;53.104;18.058;2024-03-02T00:56:10;100396.13;;;7.62;78.68
84817;BME280;75051;53.104;18.058;2024-03-02T00:58:39;100388.89;;;7.60;78.74
84817;BME280;75051;53.104;18.058;2024-03-02T01:01:06;100391.11;;;7.56;79.25
84817;BME280;75051;53.104;18.058;2024-03-02T01:03:34;100387.86;;;7.53;78.99
84817;BME280;75051;53.104;18.058;2024-03-02T01:06:00;100379.73;;;7.51;79.10
84817;BME280;75051;53.104;18.058;2024-03-02T01:08:27;100380.41;;;7.50;79.21
84817;BME280;75051;53.104;18.058;2024-03-02T01:10:54;100374.63;;;7.50;79.27
84817;BME280;75051;53.104;18.058;2024-03-02T01:13:22;100365.02;;;7.49;79.17
84817;BME280;75051;53.104;18.058;2024-03-02T01:15:50;100363.55;;;7.47;79.09
84817;BME280;75051;53.104;18.058;2024-03-02T01:18:17;100363.14;;;7.45;79.12
84817;BME280;75051;53.104;18.058;2024-03-02T01:20:43;100365.15;;;7.46;79.04
84817;BME280;75051;53.104;18.058;2024-03-02T01:23:10;100367.90;;;7.47;78.93
84817;BME280;75051;53.104;18.058;2024-03-02T01:25:37;100366.55;;;7.48;79.01
84817;BME280;75051;53.104;18.058;2024-03-02T01:28:04;100363.17;;;7.46;79.11
84817;BME280;75051;53.104;18.058;2024-03-02T01:30:31;100359.89;;;7.41;79.48
84817;BME280;75051;53.104;18.058;2024-03-02T01:32:57;100354.19;;;7.39;79.27
84817;BME280;75051;53.104;18.058;2024-03-02T01:35:26;100348.10;;;7.38;79.52
84817;BME280;75051;53.104;18.058;2024-03-02T01:37:53;100346.19;;;7.36;79.64
84817;BME280;75051;53.104;18.058;2024-03-02T01:40:20;100342.52;;;7.33;79.69
84817;BME280;75051;53.104;18.058;2024-03-02T01:42:47;100340.06;;;7.31;79.65
84817;BME280;75051;53.104;18.058;2024-03-02T01:45:14;100339.36;;;7.28;79.69
84817;BME280;75051;53.104;18.058;2024-03-02T01:47:41;100343.59;;;7.28;79.77
84817;BME280;75051;53.104;18.058;2024-03-02T01:50:12;100343.41;;;7.28;79.71
84817;BME280;75051;53.104;18.058;2024-03-02T01:52:39;100345.14;;;7.26;79.53
84817;BME280;75051;53.104;18.058;2024-03-02T01:55:06;100343.04;;;7.26;79.60
84817;BME280;75051;53.104;18.058;2024-03-02T01:57:34;100340.14;;;7.24;79.51
84817;BME280;75051;53.104;18.058;2024-03-02T02:00:01;100342.14;;;7.24;79.54
84817;BME280;75051;53.104;18.058;2024-03-02T02:02:28;100351.61;;;7.23;79.51
84817;BME280;75051;53.104;18.058;2024-03-02T02:04:55;100350.90;;;7.23;79.58
84817;BME280;75051;53.104;18.058;2024-03-02T02:07:21;100346.13;;;7.22;79.48
84817;BME280;75051;53.104;18.058;2024-03-02T02:09:48;100345.91;;;7.21;79.46
84817;BME280;75051;53.104;18.058;2024-03-02T02:12:14;100344.52;;;7.19;79.51
84817;BME280;75051;53.104;18.058;2024-03-02T02:14:49;100343.23;;;7.15;79.58
84817;BME280;75051;53.104;18.058;2024-03-02T02:17:16;100336.44;;;7.13;79.39
84817;BME280;75051;53.104;18.058;2024-03-02T02:19:43;100334.83;;;7.11;79.60
84817;BME280;75051;53.104;18.058;2024-03-02T02:22:10;100334.06;;;7.08;79.65
84817;BME280;75051;53.104;18.058;2024-03-02T02:24:41;100339.08;;;7.03;79.57
84817;BME280;75051;53.104;18.058;2024-03-02T02:27:08;100340.76;;;7.01;79.64
84817;BME280;75051;53.104;18.058;2024-03-02T02:29:36;100345.85;;;7.01;79.73
84817;BME280;75051;53.104;18.058;2024-03-02T02:32:03;100349.27;;;6.99;79.81
84817;BME280;75051;53.104;18.058;2024-03-02T02:34:30;100344.95;;;6.97;79.60
84817;BME280;75051;53.104;18.058;2024-03-02T02:36:56;100342.67;;;6.95;79.88
84817;BME280;75051;53.104;18.058;2024-03-02T02:39:23;100339.98;;;6.93;79.72
84817;BME280;75051;53.104;18.058;2024-03-02T02:41:50;100341.73;;;6.92;79.76
84817;BME280;75051;53.104;18.058;2024-03-02T02:44:17;100343.05;;;6.89;80.05
84817;BME280;75051;53.104;18.058;2024-03-02T02:46:43;100339.55;;;6.82;80.13
84817;BME280;75051;53.104;18.058;2024-03-02T02:49:10;100340.41;;;6.77;80.11
84817;BME280;75051;53.104;18.058;2024-03-02T02:51:37;100341.23;;;6.71;80.35
84817;BME280;75051;53.104;18.058;2024-03-02T02:54:03;100339.40;;;6.68;80.36
84817;BME280;75051;53.104;18.058;2024-03-02T02:56:30;100340.04;;;6.65;80.38
84817;BME280;75051;53.104;18.058;2024-03-02T02:58:56;100333.59;;;6.61;80.56
84817;BME280;75051;53.104;18.058;2024-03-02T03:01:23;100334.42;;;6.57;80.15
84817;BME280;75051;53.104;18.058;2024-03-02T03:03:49;100334.56;;;6.53;80.35
84817;BME280;75051;53.104;18.058;2024-03-02T03:06:16;100338.10;;;6.52;80.18
84817;BME280;75051;53.104;18.058;2024-03-02T03:08:43;100336.80;;;6.51;80.23
84817;BME280;75051;53.104;18.058;2024-03-02T03:11:10;100338.97;;;6.51;80.33
84817;BME280;75051;53.104;18.058;2024-03-02T03:13:37;100336.39;;;6.48;80.51
84817;BME280;75051;53.104;18.058;2024-03-02T03:16:04;100340.88;;;6.44;80.35
84817;BME280;75051;53.104;18.058;2024-03-02T03:18:30;100346.09;;;6.40;80.33
84817;BME280;75051;53.104;18.058;2024-03-02T03:20:57;100340.75;;;6.40;80.40
84817;BME280;75051;53.104;18.058;2024-03-02T03:23:23;100340.80;;;6.39;80.52
84817;BME280;75051;53.104;18.058;2024-03-02T03:25:50;100335.72;;;6.40;80.52
84817;BME280;75051;53.104;18.058;2024-03-02T03:28:17;100335.73;;;6.38;80.55
84817;BME280;75051;53.104;18.058;2024-03-02T03:30:44;100334.05;;;6.37;80.60
84817;BME280;75051;53.104;18.058;2024-03-02T03:33:11;100331.66;;;6.37;80.79
84817;BME280;75051;53.104;18.058;2024-03-02T03:35:37;100329.02;;;6.38;80.78
84817;BME280;75051;53.104;18.058;2024-03-02T03:38:04;100323.71;;;6.39;80.74
84817;BME280;75051;53.104;18.058;2024-03-02T03:40:31;100328.02;;;6.41;80.75
84817;BME280;75051;53.104;18.058;2024-03-02T03:42:57;100325.84;;;6.41;80.65
84817;BME280;75051;53.104;18.058;2024-03-02T03:45:24;100318.56;;;6.42;80.43
84817;BME280;75051;53.104;18.058;2024-03-02T03:47:53;100319.16;;;6.45;80.48
84817;BME280;75051;53.104;18.058;2024-03-02T03:50:20;100324.17;;;6.47;80.40
84817;BME280;75051;53.104;18.058;2024-03-02T03:52:49;100327.25;;;6.49;80.42
84817;BME280;75051;53.104;18.058;2024-03-02T03:55:16;100326.21;;;6.49;80.38
84817;BME280;75051;53.104;18.058;2024-03-02T03:57:42;100321.14;;;6.47;80.42
84817;BME280;75051;53.104;18.058;2024-03-02T04:00:09;100319.74;;;6.49;80.19
84817;BME280;75051;53.104;18.058;2024-03-02T04:02:36;100315.59;;;6.51;80.23
84817;BME280;75051;53.104;18.058;2024-03-02T04:05:03;100312.98;;;6.53;80.05
84817;BME280;75051;53.104;18.058;2024-03-02T04:07:36;100312.48;;;6.53;80.20
84817;BME280;75051;53.104;18.058;2024-03-02T04:10:10;100304.80;;;6.51;80.18
84817;BME280;75051;53.104;18.058;2024-03-02T04:12:37;100308.80;;;6.52;80.12
84817;BME280;75051;53.104;18.058;2024-03-02T04:15:05;100306.92;;;6.53;80.17
84817;BME280;75051;53.104;18.058;2024-03-02T04:17:33;100309.02;;;6.53;80.10
84817;BME280;75051;53.104;18.058;2024-03-02T04:20:02;100310.09;;;6.52;80.08
84817;BME280;75051;53.104;18.058;2024-03-02T04:22:33;100312.70;;;6.51;80.16
84817;BME280;75051;53.104;18.058;2024-03-02T04:25:01;100306.52;;;6.53;79.93
84817;BME280;75051;53.104;18.058;2024-03-02T04:27:28;100303.91;;;6.54;79.97
84817;BME280;75051;53.104;18.058;2024-03-02T04:29:54;100306.64;;;6.54;79.95
84817;BME280;75051;53.104;18.058;2024-03-02T04:32:21;100305.27;;;6.51;79.92
84817;BME280;75051;53.104;18.058;2024-03-02T04:34:47;100302.13;;;6.50;79.97
84817;BME280;75051;53.104;18.058;2024-03-02T04:37:14;100299.83;;;6.52;79.86
84817;BME280;75051;53.104;18.058;2024-03-02T04:39:41;100296.42;;;6.51;79.94
84817;BME280;75051;53.104;18.058;2024-03-02T04:42:07;100304.03;;;6.51;79.91
84817;BME280;75051;53.104;18.058;2024-03-02T04:44:34;100308.74;;;6.51;79.90
84817;BME280;75051;53.104;18.058;2024-03-02T04:47:00;100305.24;;;6.50;79.79
84817;BME280;75051;53.104;18.058;2024-03-02T04:49:27;100309.00;;;6.50;79.86
84817;BME280;75051;53.104;18.058;2024-03-02T04:51:54;100310.71;;;6.49;80.10
84817;BME280;75051;53.104;18.058;2024-03-02T04:54:20;100318.27;;;6.49;80.09
84817;BME280;75051;53.104;18.058;2024-03-02T04:56:47;100323.46;;;6.47;79.91
84817;BME280;75051;53.104;18.058;2024-03-02T04:59:18;100327.45;;;6.47;79.72
84817;BME280;75051;53.104;18.058;2024-03-02T05:01:45;100327.84;;;6.47;79.90
84817;BME280;75051;53.104;18.058;2024-03-02T05:04:12;100328.58;;;6.46;79.94
84817;BME280;75051;53.104;18.058;2024-03-02T05:06:39;100335.06;;;6.46;79.88
84817;BME280;75051;53.104;18.058;2024-03-02T05:09:08;100337.10;;;6.46;79.97
84817;BME280;75051;53.104;18.058;2024-03-02T05:11:35;100334.67;;;6.45;80.03
84817;BME280;75051;53.104;18.058;2024-03-02T05:14:06;100337.45;;;6.42;79.87
84817;BME280;75051;53.104;18.058;2024-03-02T05:16:34;100350.90;;;6.44;80.06
84817;BME280;75051;53.104;18.058;2024-03-02T05:19:01;100344.38;;;6.47;79.96
84817;BME280;75051;53.104;18.058;2024-03-02T05:21:27;100343.41;;;6.50;79.88
84817;BME280;75051;53.104;18.058;2024-03-02T05:23:54;100340.60;;;6.49;79.92
84817;BME280;75051;53.104;18.058;2024-03-02T05:26:20;100338.75;;;6.47;79.86
84817;BME280;75051;53.104;18.058;2024-03-02T05:28:47;100337.08;;;6.48;79.90
84817;BME280;75051;53.104;18.058;2024-03-02T05:31:15;100341.34;;;6.51;79.93
84817;BME280;75051;53.104;18.058;2024-03-02T05:33:43;100347.92;;;6.53;79.99
84817;BME280;75051;53.104;18.058;2024-03-02T05:36:10;100350.25;;;6.55;80.04
84817;BME280;75051;53.104;18.058;2024-03-02T05:38:37;100344.95;;;6.56;79.94
84817;BME280;75051;53.104;18.058;2024-03-02T05:41:04;100349.25;;;6.56;79.80
84817;BME280;75051;53.104;18.058;2024-03-02T05:43:31;100357.04;;;6.57;79.95
84817;BME280;75051;53.104;18.058;2024-03-02T05:45:58;100354.16;;;6.59;80.08
84817;BME280;75051;53.104;18.058;2024-03-02T05:48:24;100357.13;;;6.58;79.89
84817;BME280;75051;53.104;18.058;2024-03-02T05:50:51;100367.55;;;6.57;79.72
84817;BME280;75051;53.104;18.058;2024-03-02T05:53:17;100374.41;;;6.56;79.85
84817;BME280;75051;53.104;18.058;2024-03-02T05:55:44;100376.61;;;6.58;79.82
84817;BME280;75051;53.104;18.058;2024-03-02T05:58:11;100373.00;;;6.59;79.87
84817;BME280;75051;53.104;18.058;2024-03-02T06:00:58;100379.27;;;6.60;80.09
84817;BME280;75051;53.104;18.058;2024-03-02T06:03:24;100379.92;;;6.59;79.71
84817;BME280;75051;53.104;18.058;2024-03-02T06:05:51;100378.42;;;6.58;80.04
84817;BME280;75051;53.104;18.058;2024-03-02T06:08:18;100379.98;;;6.56;80.02
84817;BME280;75051;53.104;18.058;2024-03-02T06:10:44;100384.77;;;6.59;80.08
84817;BME280;75051;53.104;18.058;2024-03-02T06:13:12;100384.52;;;6.59;79.90
84817;BME280;75051;53.104;18.058;2024-03-02T06:15:38;100388.38;;;6.61;79.97
84817;BME280;75051;53.104;18.058;2024-03-02T06:18:05;100385.00;;;6.60;79.98
84817;BME280;75051;53.104;18.058;2024-03-02T06:20:34;100388.69;;;6.63;79.95
84817;BME280;75051;53.104;18.058;2024-03-02T06:23:01;100389.00;;;6.65;79.88
84817;BME280;75051;53.104;18.058;2024-03-02T06:25:27;100384.36;;;6.66;80.01
84817;BME280;75051;53.104;18.058;2024-03-02T06:27:54;100380.46;;;6.69;79.99
84817;BME280;75051;53.104;18.058;2024-03-02T06:30:25;100378.78;;;6.70;79.69
84817;BME280;75051;53.104;18.058;2024-03-02T06:33:00;100381.71;;;6.71;79.94
84817;BME280;75051;53.104;18.058;2024-03-02T06:35:26;100386.43;;;6.75;79.86
84817;BME280;75051;53.104;18.058;2024-03-02T06:37:53;100389.46;;;6.77;79.82
84817;BME280;75051;53.104;18.058;2024-03-02T06:40:20;100388.64;;;6.79;79.77
84817;BME280;75051;53.104;18.058;2024-03-02T06:42:48;100388.86;;;6.81;79.87
84817;BME280;75051;53.104;18.058;2024-03-02T06:45:14;100384.66;;;6.82;79.86
84817;BME280;75051;53.104;18.058;2024-03-02T06:47:41;100383.27;;;6.82;79.89
84817;BME280;75051;53.104;18.058;2024-03-02T06:50:08;100381.73;;;6.85;79.78
84817;BME280;75051;53.104;18.058;2024-03-02T06:52:35;100385.20;;;6.89;79.75
84817;BME280;75051;53.104;18.058;2024-03-02T06:55:03;100380.56;;;6.92;79.73
84817;BME280;75051;53.104;18.058;2024-03-02T06:57:30;100377.35;;;6.95;79.72
84817;BME280;75051;53.104;18.058;2024-03-02T06:59:57;100373.59;;;6.97;79.75
84817;BME280;75051;53.104;18.058;2024-03-02T07:02:25;100367.66;;;7.00;79.44
84817;BME280;75051;53.104;18.058;2024-03-02T07:04:54;100372.53;;;7.02;79.39
84817;BME280;75051;53.104;18.058;2024-03-02T07:07:22;100381.72;;;7.02;79.37
84817;BME280;75051;53.104;18.058;2024-03-02T07:09:48;100388.47;;;7.03;79.34
84817;BME280;75051;53.104;18.058;2024-03-02T07:12:15;100390.77;;;7.03;79.31
84817;BME280;75051;53.104;18.058;2024-03-02T07:14:42;100393.41;;;7.06;79.32
84817;BME280;75051;53.104;18.058;2024-03-02T07:17:27;100388.94;;;7.09;79.36
84817;BME280;75051;53.104;18.058;2024-03-02T07:19:55;100398.74;;;7.12;79.07
84817;BME280;75051;53.104;18.058;2024-03-02T07:22:21;100399.35;;;7.16;79.07
84817;BME280;75051;53.104;18.058;2024-03-02T07:24:49;100395.88;;;7.19;78.96
84817;BME280;75051;53.104;18.058;2024-03-02T07:27:16;100397.92;;;7.23;78.96
84817;BME280;75051;53.104;18.058;2024-03-02T07:29:43;100402.27;;;7.28;78.73
84817;BME280;75051;53.104;18.058;2024-03-02T07:32:10;100405.70;;;7.34;78.77
84817;BME280;75051;53.104;18.058;2024-03-02T07:34:37;100409.17;;;7.39;78.50
84817;BME280;75051;53.104;18.058;2024-03-02T07:37:04;100417.02;;;7.41;78.51
84817;BME280;75051;53.104;18.058;2024-03-02T07:39:32;100416.39;;;7.45;78.46
84817;BME280;75051;53.104;18.058;2024-03-02T07:41:59;100413.09;;;7.58;78.31
84817;BME280;75051;53.104;18.058;2024-03-02T07:44:26;100407.54;;;7.75;77.87
84817;BME280;75051;53.104;18.058;2024-03-02T07:46:55;100414.94;;;8.01;77.61
84817;BME280;75051;53.104;18.058;2024-03-02T07:49:22;100413.95;;;8.31;76.93
84817;BME280;75051;53.104;18.058;2024-03-02T07:51:48;100410.52;;;8.70;76.43
84817;BME280;75051;53.104;18.058;2024-03-02T07:54:17;100406.14;;;9.24;75.30
84817;BME280;75051;53.104;18.058;2024-03-02T07:56:45;100402.56;;;9.87;73.69
84817;BME280;75051;53.104;18.058;2024-03-02T07:59:12;100405.30;;;10.58;73.23
84817;BME280;75051;53.104;18.058;2024-03-02T08:01:39;100398.35;;;11.33;71.46
84817;BME280;75051;53.104;18.058;2024-03-02T08:04:06;100404.39;;;11.86;67.43
84817;BME280;75051;53.104;18.058;2024-03-02T08:06:33;100407.71;;;12.13;67.38
84817;BME280;75051;53.104;18.058;2024-03-02T08:09:00;100407.30;;;12.20;67.18
84817;BME280;75051;53.104;18.058;2024-03-02T08:11:27;100411.46;;;12.19;66.22
84817;BME280;75051;53.104;18.058;2024-03-02T08:13:55;100420.48;;;12.25;66.54
84817;BME280;75051;53.104;18.058;2024-03-02T08:16:28;100425.08;;;12.41;65.39
84817;BME280;75051;53.104;18.058;2024-03-02T08:18:55;100422.31;;;12.61;64.93
84817;BME280;75051;53.104;18.058;2024-03-02T08:21:25;100419.71;;;12.55;65.24
84817;BME280;75051;53.104;18.058;2024-03-02T08:23:51;100421.66;;;12.72;64.98
84817;BME280;75051;53.104;18.058;2024-03-02T08:26:18;100425.13;;;12.83;64.07
84817;BME280;75051;53.104;18.058;2024-03-02T08:28:45;100428.30;;;12.68;64.72
84817;BME280;75051;53.104;18.058;2024-03-02T08:31:11;100421.23;;;12.87;64.57
84817;BME280;75051;53.104;18.058;2024-03-02T08:33:38;100428.98;;;13.31;63.12
84817;BME280;75051;53.104;18.058;2024-03-02T08:36:07;100421.11;;;13.74;62.06
84817;BME280;75051;53.104;18.058;2024-03-02T08:38:36;100409.72;;;14.27;61.30
84817;BME280;75051;53.104;18.058;2024-03-02T08:41:03;100410.95;;;14.52;59.39
84817;BME280;75051;53.104;18.058;2024-03-02T08:43:30;100409.14;;;14.66;59.56
84817;BME280;75051;53.104;18.058;2024-03-02T08:45:57;100409.75;;;14.85;56.80
84817;BME280;75051;53.104;18.058;2024-03-02T08:48:23;100411.21;;;14.93;56.22
84817;BME280;75051;53.104;18.058;2024-03-02T08:50:50;100420.06;;;14.96;55.75
84817;BME280;75051;53.104;18.058;2024-03-02T08:53:17;100421.80;;;14.96;56.39
84817;BME280;75051;53.104;18.058;2024-03-02T08:55:46;100427.24;;;14.75;55.91
84817;BME280;75051;53.104;18.058;2024-03-02T08:58:12;100431.87;;;14.32;55.96
84817;BME280;75051;53.104;18.058;2024-03-02T09:00:40;100441.27;;;13.98;56.81
84817;BME280;75051;53.104;18.058;2024-03-02T09:03:07;100433.95;;;13.68;56.94
84817;BME280;75051;53.104;18.058;2024-03-02T09:05:34;100430.84;;;13.48;57.66
84817;BME280;75051;53.104;18.058;2024-03-02T09:08:00;100425.98;;;13.46;58.60
84817;BME280;75051;53.104;18.058;2024-03-02T09:10:27;100437.31;;;13.64;59.53
84817;BME280;75051;53.104;18.058;2024-03-02T09:12:54;100448.05;;;14.01;58.56
84817;BME280;75051;53.104;18.058;2024-03-02T09:15:20;100447.05;;;14.32;56.73
84817;BME280;75051;53.104;18.058;2024-03-02T09:17:49;100445.56;;;14.44;57.24
84817;BME280;75051;53.104;18.058;2024-03-02T09:20:16;100447.55;;;14.57;56.48
84817;BME280;75051;53.104;18.058;2024-03-02T09:22:43;100441.11;;;14.63;56.51
84817;BME280;75051;53.104;18.058;2024-03-02T09:25:10;100437.11;;;14.62;55.60
84817;BME280;75051;53.104;18.058;2024-03-02T09:27:37;100440.40;;;14.46;56.63
84817;BME280;75051;53.104;18.058;2024-03-02T09:30:07;100442.92;;;14.64;57.86
84817;BME280;75051;53.104;18.058;2024-03-02T09:32:34;100439.98;;;14.78;55.98
84817;BME280;75051;53.104;18.058;2024-03-02T09:35:01;100433.70;;;14.95;55.88
84817;BME280;75051;53.104;18.058;2024-03-02T09:37:27;100426.89;;;14.97;55.28
84817;BME280;75051;53.104;18.058;2024-03-02T09:39:56;100423.73;;;14.74;54.75
84817;BME280;75051;53.104;18.058;2024-03-02T09:42:23;100431.02;;;14.45;55.50
84817;BME280;75051;53.104;18.058;2024-03-02T09:44:50;100436.86;;;14.15;55.70
84817;BME280;75051;53.104;18.058;2024-03-02T09:47:17;100437.21;;;13.92;55.85
84817;BME280;75051;53.104;18.058;2024-03-02T09:49:44;100435.53;;;13.93;55.46
84817;BME280;75051;53.104;18.058;2024-03-02T09:52:13;100437.26;;;14.02;55.23
84817;BME280;75051;53.104;18.058;2024-03-02T09:54:41;100443.94;;;14.12;55.09
84817;BME280;75051;53.104;18.058;2024-03-02T09:57:07;100443.84;;;14.11;54.70
84817;BME280;75051;53.104;18.058;2024-03-02T09:59:34;100444.14;;;13.96;55.12
84817;BME280;75051;53.104;18.058;2024-03-02T10:02:02;100452.20;;;13.73;55.93
84817;BME280;75051;53.104;18.058;2024-03-02T10:04:30;100448.99;;;13.55;56.16
84817;BME280;75051;53.104;18.058;2024-03-02T10:07:12;100449.89;;;13.46;56.50
84817;BME280;75051;53.104;18.058;2024-03-02T10:09:44;100441.95;;;13.60;56.50
84817;BME280;75051;53.104;18.058;2024-03-02T10:12:14;100437.48;;;13.76;55.90
84817;BME280;75051;53.104;18.058;2024-03-02T10:14:41;100446.98;;;13.76;55.82
84817;BME280;75051;53.104;18.058;2024-03-02T10:17:10;100444.56;;;13.66;56.25
84817;BME280;75051;53.104;18.058;2024-03-02T10:19:37;100438.58;;;13.56;56.21
84817;BME280;75051;53.104;18.058;2024-03-02T10:22:07;100438.75;;;13.73;56.30
84817;BME280;75051;53.104;18.058;2024-03-02T10:24:38;100426.78;;;14.08;55.88
84817;BME280;75051;53.104;18.058;2024-03-02T10:29:41;100425.72;;;14.88;54.41
84817;BME280;75051;53.104;18.058;2024-03-02T10:32:09;100421.13;;;15.18;54.19
84817;BME280;75051;53.104;18.058;2024-03-02T10:34:41;100424.76;;;15.61;53.73
84817;BME280;75051;53.104;18.058;2024-03-02T10:37:10;100413.05;;;16.00;52.31
84817;BME280;75051;53.104;18.058;2024-03-02T10:39:38;100411.33;;;16.18;52.58
84817;BME280;75051;53.104;18.058;2024-03-02T10:42:09;100413.19;;;16.43;51.33
84817;BME280;75051;53.104;18.058;2024-03-02T10:44:38;100413.92;;;16.66;51.42
84817;BME280;75051;53.104;18.058;2024-03-02T10:47:06;100417.27;;;16.91;50.51
84817;BME280;75051;53.104;18.058;2024-03-02T10:49:35;100421.95;;;16.99;50.23
84817;BME280;75051;53.104;18.058;2024-03-02T10:52:04;100414.27;;;16.81;49.83
84817;BME280;75051;53.104;18.058;2024-03-02T10:54:31;100408.08;;;16.63;50.56
84817;BME280;75051;53.104;18.058;2024-03-02T10:57:04;100399.03;;;16.64;50.05
84817;BME280;75051;53.104;18.058;2024-03-02T10:59:36;100401.23;;;16.54;50.33
84817;BME280;75051;53.104;18.058;2024-03-02T11:02:06;100403.80;;;16.57;50.92
84817;BME280;75051;53.104;18.058;2024-03-02T11:04:35;100400.55;;;16.66;50.23
84817;BME280;75051;53.104;18.058;2024-03-02T11:07:10;100398.48;;;16.65;50.27
84817;BME280;75051;53.104;18.058;2024-03-02T11:09:41;100399.42;;;16.51;49.84
84817;BME280;75051;53.104;18.058;2024-03-02T11:12:36;100396.70;;;16.32;50.49
84817;BME280;75051;53.104;18.058;2024-03-02T11:15:10;100403.30;;;16.25;50.84
84817;BME280;75051;53.104;18.058;2024-03-02T11:17:39;100398.54;;;16.16;50.73
84817;BME280;75051;53.104;18.058;2024-03-02T11:20:08;100399.05;;;15.97;51.54
84817;BME280;75051;53.104;18.058;2024-03-02T11:22:36;100399.14;;;15.92;51.86
84817;BME280;75051;53.104;18.058;2024-03-02T11:25:03;100395.30;;;16.03;51.87
84817;BME280;75051;53.104;18.058;2024-03-02T11:28:00;100399.13;;;16.13;51.30
84817;BME280;75051;53.104;18.058;2024-03-02T11:30:49;100390.92;;;15.99;51.51
84817;BME280;75051;53.104;18.058;2024-03-02T11:33:23;100389.73;;;15.95;51.86
84817;BME280;75051;53.104;18.058;2024-03-02T11:35:50;100395.69;;;15.95;51.38
84817;BME280;75051;53.104;18.058;2024-03-02T11:38:18;100391.33;;;15.80;52.20
84817;BME280;75051;53.104;18.058;2024-03-02T11:40:45;100394.30;;;15.76;52.47
84817;BME280;75051;53.104;18.058;2024-03-02T11:43:12;100393.52;;;15.67;52.22
84817;BME280;75051;53.104;18.058;2024-03-02T11:45:42;100397.94;;;15.65;52.83
84817;BME280;75051;53.104;18.058;2024-03-02T11:48:13;100397.77;;;15.69;52.22
84817;BME280;75051;53.104;18.058;2024-03-02T11:50:47;100395.88;;;15.52;52.44
84817;BME280;75051;53.104;18.058;2024-03-02T11:53:15;100385.32;;;15.29;52.91
84817;BME280;75051;53.104;18.058;2024-03-02T11:55:44;100386.67;;;15.17;53.39
84817;BME280;75051;53.104;18.058;2024-03-02T11:58:13;100385.81;;;15.12;53.54
84817;BME280;75051;53.104;18.058;2024-03-02T12:00:40;100387.17;;;14.99;53.57
84817;BME280;75051;53.104;18.058;2024-03-02T12:03:09;100389.96;;;14.85;53.75
84817;BME280;75051;53.104;18.058;2024-03-02T12:05:36;100391.91;;;14.72;54.07
84817;BME280;75051;53.104;18.058;2024-03-02T12:08:05;100392.13;;;14.63;54.48
84817;BME280;75051;53.104;18.058;2024-03-02T12:10:33;100389.02;;;14.57;54.79
84817;BME280;75051;53.104;18.058;2024-03-02T12:13:04;100380.23;;;14.50;55.06
84817;BME280;75051;53.104;18.058;2024-03-02T12:15:37;100382.45;;;14.45;55.21
84817;BME280;75051;53.104;18.058;2024-03-02T12:18:05;100382.25;;;14.44;55.46
84817;BME280;75051;53.104;18.058;2024-03-02T12:20:32;100379.63;;;14.46;55.25
84817;BME280;75051;53.104;18.058;2024-03-02T12:23:02;100380.56;;;14.50;55.41
84817;BME280;75051;53.104;18.058;2024-03-02T12:25:30;100383.00;;;14.43;54.95
84817;BME280;75051;53.104;18.058;2024-03-02T12:28:00;100382.14;;;14.30;55.78
84817;BME280;75051;53.104;18.058;2024-03-02T12:30:30;100373.90;;;14.32;55.64
84817;BME280;75051;53.104;18.058;2024-03-02T12:32:57;100376.52;;;14.28;55.66
84817;BME280;75051;53.104;18.058;2024-03-02T12:35:25;100378.42;;;14.16;56.34
84817;BME280;75051;53.104;18.058;2024-03-02T12:37:53;100373.26;;;14.11;56.80
84817;BME280;75051;53.104;18.058;2024-03-02T12:40:21;100372.95;;;14.08;56.73
84817;BME280;75051;53.104;18.058;2024-03-02T12:42:49;100374.38;;;14.03;56.49
84817;BME280;75051;53.104;18.058;2024-03-02T12:45:17;100373.23;;;13.91;56.72
84817;BME280;75051;53.104;18.058;2024-03-02T12:47:50;100366.45;;;13.84;57.07
84817;BME280;75051;53.104;18.058;2024-03-02T12:50:20;100378.20;;;13.72;57.06
84817;BME280;75051;53.104;18.058;2024-03-02T12:52:54;100377.25;;;13.56;57.42
84817;BME280;75051;53.104;18.058;2024-03-02T12:55:24;100385.74;;;13.49;58.04